Alton, Missouri
Current Conditions -  °F | °C
As of 2:53 PM on Friday 24 Oct 2014 (Local Time) from KUNO Reporting Station
Broken Clouds Broken Clouds  
Wind Chill: 71°   Ceiling: 3900
Heat Index: 71°   Visibility: 10mi
Dew Point: 57°   Wind: 6mph
Humidity: 61%   Direction: 270°W
Pressure: 30.09"   Gusts: NA
Location:  36.69°N, 91.4°W
Report Text: KUNO 241953Z AUTO 27005KT 10SM BKN039 22/14 A3009 RMK AO2 SLP184 T02170139
Loading
Personal Weather Stations






























Interactive Weather Map New forecast layout! Learn more

10-Day Weather Forecast

Advertisements
Track Severe Weather on mobile